sensor_id;sensor_type;location;lat;lon;timestamp;P1;durP1;ratioP1;P2;durP2;ratioP2
1505;SDS011;744;51.436;7.356;2023-03-20T00:02:19;30.90;;;22.27;;
1505;SDS011;744;51.436;7.356;2023-03-20T00:04:47;28.83;;;20.77;;
1505;SDS011;744;51.436;7.356;2023-03-20T00:07:14;26.20;;;19.47;;
1505;SDS011;744;51.436;7.356;2023-03-20T00:09:41;27.33;;;20.43;;
1505;SDS011;744;51.436;7.356;2023-03-20T00:12:10;24.53;;;20.83;;
1505;SDS011;744;51.436;7.356;2023-03-20T00:14:41;25.73;;;20.73;;
1505;SDS011;744;51.436;7.356;2023-03-20T00:17:12;27.67;;;21.20;;
1505;SDS011;744;51.436;7.356;2023-03-20T00:19:45;28.50;;;20.23;;
1505;SDS011;744;51.436;7.356;2023-03-20T00:22:12;30.33;;;19.97;;
1505;SDS011;744;51.436;7.356;2023-03-20T00:24:39;30.00;;;22.50;;
1505;SDS011;744;51.436;7.356;2023-03-20T00:27:08;26.20;;;20.33;;
1505;SDS011;744;51.436;7.356;2023-03-20T00:29:39;27.30;;;19.87;;
1505;SDS011;744;51.436;7.356;2023-03-20T00:32:12;29.63;;;17.90;;
1505;SDS011;744;51.436;7.356;2023-03-20T00:34:40;23.97;;;18.30;;
1505;SDS011;744;51.436;7.356;2023-03-20T00:37:07;24.10;;;17.90;;
1505;SDS011;744;51.436;7.356;2023-03-20T00:39:36;25.33;;;19.40;;
1505;SDS011;744;51.436;7.356;2023-03-20T00:42:03;23.60;;;18.23;;
1505;SDS011;744;51.436;7.356;2023-03-20T00:44:34;24.90;;;18.53;;
1505;SDS011;744;51.436;7.356;2023-03-20T00:47:19;21.93;;;16.93;;
1505;SDS011;744;51.436;7.356;2023-03-20T00:49:49;23.63;;;19.77;;
1505;SDS011;744;51.436;7.356;2023-03-20T00:52:18;24.53;;;17.70;;
1505;SDS011;744;51.436;7.356;2023-03-20T00:54:45;28.13;;;20.90;;
1505;SDS011;744;51.436;7.356;2023-03-20T00:57:14;26.90;;;22.07;;
1505;SDS011;744;51.436;7.356;2023-03-20T00:59:50;25.60;;;20.00;;
1505;SDS011;744;51.436;7.356;2023-03-20T01:02:24;22.97;;;19.20;;
1505;SDS011;744;51.436;7.356;2023-03-20T01:04:54;27.13;;;19.93;;
1505;SDS011;744;51.436;7.356;2023-03-20T01:07:21;27.57;;;19.90;;
1505;SDS011;744;51.436;7.356;2023-03-20T01:09:48;24.00;;;18.17;;
1505;SDS011;744;51.436;7.356;2023-03-20T01:12:15;22.80;;;16.07;;
1505;SDS011;744;51.436;7.356;2023-03-20T01:14:42;20.50;;;16.27;;
1505;SDS011;744;51.436;7.356;2023-03-20T01:17:16;18.27;;;15.90;;
1505;SDS011;744;51.436;7.356;2023-03-20T01:19:45;19.13;;;15.53;;
1505;SDS011;744;51.436;7.356;2023-03-20T01:22:13;22.23;;;15.67;;
1505;SDS011;744;51.436;7.356;2023-03-20T01:24:40;19.10;;;14.70;;
1505;SDS011;744;51.436;7.356;2023-03-20T01:27:10;18.60;;;15.10;;
1505;SDS011;744;51.436;7.356;2023-03-20T01:29:39;19.23;;;16.00;;
1505;SDS011;744;51.436;7.356;2023-03-20T01:32:14;20.57;;;15.63;;
1505;SDS011;744;51.436;7.356;2023-03-20T01:34:43;19.03;;;14.90;;
1505;SDS011;744;51.436;7.356;2023-03-20T01:37:13;18.53;;;14.43;;
1505;SDS011;744;51.436;7.356;2023-03-20T01:39:44;18.63;;;15.70;;
1505;SDS011;744;51.436;7.356;2023-03-20T01:42:13;16.07;;;12.50;;
1505;SDS011;744;51.436;7.356;2023-03-20T01:44:41;16.13;;;13.13;;
1505;SDS011;744;51.436;7.356;2023-03-20T01:47:15;15.07;;;12.93;;
1505;SDS011;744;51.436;7.356;2023-03-20T01:52:50;17.67;;;14.33;;
1505;SDS011;744;51.436;7.356;2023-03-20T01:55:21;20.13;;;15.00;;
1505;SDS011;744;51.436;7.356;2023-03-20T01:57:49;18.83;;;15.40;;
1505;SDS011;744;51.436;7.356;2023-03-20T02:00:18;22.60;;;15.17;;
1505;SDS011;744;51.436;7.356;2023-03-20T02:02:46;18.03;;;14.80;;
1505;SDS011;744;51.436;7.356;2023-03-20T02:05:14;15.43;;;12.33;;
1505;SDS011;744;51.436;7.356;2023-03-20T02:07:46;16.53;;;11.80;;
1505;SDS011;744;51.436;7.356;2023-03-20T02:10:23;19.20;;;12.87;;
1505;SDS011;744;51.436;7.356;2023-03-20T02:12:51;16.97;;;11.70;;
1505;SDS011;744;51.436;7.356;2023-03-20T02:15:19;16.23;;;12.07;;
1505;SDS011;744;51.436;7.356;2023-03-20T02:17:45;14.07;;;11.20;;
1505;SDS011;744;51.436;7.356;2023-03-20T02:28:39;13.17;;;10.33;;
1505;SDS011;744;51.436;7.356;2023-03-20T02:37:11;13.60;;;9.73;;
1505;SDS011;744;51.436;7.356;2023-03-20T02:39:59;11.40;;;9.13;;
1505;SDS011;744;51.436;7.356;2023-03-20T02:47:54;12.27;;;9.60;;
1505;SDS011;744;51.436;7.356;2023-03-20T02:50:40;13.33;;;10.13;;
1505;SDS011;744;51.436;7.356;2023-03-20T02:53:24;11.63;;;9.07;;
1505;SDS011;744;51.436;7.356;2023-03-20T02:58:42;13.90;;;10.40;;
1505;SDS011;744;51.436;7.356;2023-03-20T03:01:19;12.80;;;9.47;;
1505;SDS011;744;51.436;7.356;2023-03-20T03:03:58;11.37;;;9.30;;
1505;SDS011;744;51.436;7.356;2023-03-20T03:08:57;15.67;;;9.83;;
1505;SDS011;744;51.436;7.356;2023-03-20T03:11:34;14.73;;;10.03;;
1505;SDS011;744;51.436;7.356;2023-03-20T03:14:04;13.07;;;10.10;;
1505;SDS011;744;51.436;7.356;2023-03-20T03:16:33;11.43;;;9.27;;
1505;SDS011;744;51.436;7.356;2023-03-20T03:19:12;10.47;;;9.23;;
1505;SDS011;744;51.436;7.356;2023-03-20T03:21:45;12.10;;;8.70;;
1505;SDS011;744;51.436;7.356;2023-03-20T03:27:21;10.97;;;8.67;;
1505;SDS011;744;51.436;7.356;2023-03-20T03:29:50;12.27;;;8.83;;
1505;SDS011;744;51.436;7.356;2023-03-20T03:32:31;12.37;;;8.43;;
1505;SDS011;744;51.436;7.356;2023-03-20T03:35:00;10.90;;;8.57;;
1505;SDS011;744;51.436;7.356;2023-03-20T03:37:54;9.97;;;8.37;;
1505;SDS011;744;51.436;7.356;2023-03-20T03:40:33;8.97;;;7.90;;
1505;SDS011;744;51.436;7.356;2023-03-20T03:43:13;10.63;;;8.20;;
1505;SDS011;744;51.436;7.356;2023-03-20T03:46:05;9.63;;;7.63;;
1505;SDS011;744;51.436;7.356;2023-03-20T03:48:39;10.90;;;8.97;;
1505;SDS011;744;51.436;7.356;2023-03-20T03:51:13;10.10;;;8.30;;
1505;SDS011;744;51.436;7.356;2023-03-20T03:53:45;9.67;;;7.57;;
1505;SDS011;744;51.436;7.356;2023-03-20T03:56:18;9.33;;;7.23;;
1505;SDS011;744;51.436;7.356;2023-03-20T03:58:51;9.33;;;7.30;;
1505;SDS011;744;51.436;7.356;2023-03-20T04:01:22;9.63;;;7.80;;
1505;SDS011;744;51.436;7.356;2023-03-20T04:03:53;9.23;;;7.53;;
1505;SDS011;744;51.436;7.356;2023-03-20T04:06:23;9.20;;;7.80;;
1505;SDS011;744;51.436;7.356;2023-03-20T04:08:52;9.67;;;8.20;;
1505;SDS011;744;51.436;7.356;2023-03-20T04:11:20;8.50;;;7.20;;
1505;SDS011;744;51.436;7.356;2023-03-20T04:13:49;9.43;;;7.33;;
1505;SDS011;744;51.436;7.356;2023-03-20T04:16:18;9.70;;;6.90;;
1505;SDS011;744;51.436;7.356;2023-03-20T04:18:46;8.30;;;6.60;;
1505;SDS011;744;51.436;7.356;2023-03-20T04:21:13;9.03;;;7.00;;
1505;SDS011;744;51.436;7.356;2023-03-20T04:23:41;9.67;;;8.23;;
1505;SDS011;744;51.436;7.356;2023-03-20T04:26:08;11.80;;;8.23;;
1505;SDS011;744;51.436;7.356;2023-03-20T04:28:35;8.67;;;7.40;;
1505;SDS011;744;51.436;7.356;2023-03-20T04:31:02;9.13;;;7.73;;
1505;SDS011;744;51.436;7.356;2023-03-20T04:33:29;10.10;;;8.23;;
1505;SDS011;744;51.436;7.356;2023-03-20T04:35:56;10.40;;;7.77;;
1505;SDS011;744;51.436;7.356;2023-03-20T04:38:23;10.23;;;7.70;;
1505;SDS011;744;51.436;7.356;2023-03-20T04:40:50;11.77;;;8.00;;
1505;SDS011;744;51.436;7.356;2023-03-20T04:43:17;9.47;;;7.80;;
1505;SDS011;744;51.436;7.356;2023-03-20T04:45:45;8.70;;;7.23;;
1505;SDS011;744;51.436;7.356;2023-03-20T04:48:12;10.83;;;8.97;;
1505;SDS011;744;51.436;7.356;2023-03-20T04:50:39;11.53;;;8.03;;
1505;SDS011;744;51.436;7.356;2023-03-20T04:53:06;10.40;;;8.73;;
1505;SDS011;744;51.436;7.356;2023-03-20T04:55:33;11.90;;;9.37;;
1505;SDS011;744;51.436;7.356;2023-03-20T04:58:00;14.00;;;9.47;;
1505;SDS011;744;51.436;7.356;2023-03-20T05:00:27;11.90;;;9.10;;
1505;SDS011;744;51.436;7.356;2023-03-20T05:02:54;10.60;;;8.83;;
1505;SDS011;744;51.436;7.356;2023-03-20T05:05:21;18.33;;;9.77;;
1505;SDS011;744;51.436;7.356;2023-03-20T05:07:49;13.83;;;10.13;;
1505;SDS011;744;51.436;7.356;2023-03-20T05:10:17;12.37;;;9.43;;
1505;SDS011;744;51.436;7.356;2023-03-20T05:12:44;11.37;;;8.50;;
1505;SDS011;744;51.436;7.356;2023-03-20T05:15:11;14.17;;;11.07;;
1505;SDS011;744;51.436;7.356;2023-03-20T05:17:38;13.03;;;9.70;;
1505;SDS011;744;51.436;7.356;2023-03-20T05:20:05;15.40;;;9.40;;
1505;SDS011;744;51.436;7.356;2023-03-20T05:22:34;12.20;;;9.70;;
1505;SDS011;744;51.436;7.356;2023-03-20T05:25:01;13.03;;;10.20;;
1505;SDS011;744;51.436;7.356;2023-03-20T05:27:28;13.30;;;10.30;;
1505;SDS011;744;51.436;7.356;2023-03-20T05:29:55;16.33;;;10.03;;
1505;SDS011;744;51.436;7.356;2023-03-20T05:32:22;16.50;;;10.27;;
1505;SDS011;744;51.436;7.356;2023-03-20T05:34:49;13.37;;;10.40;;
1505;SDS011;744;51.436;7.356;2023-03-20T05:37:16;15.93;;;11.23;;
1505;SDS011;744;51.436;7.356;2023-03-20T05:39:43;11.97;;;10.07;;
1505;SDS011;744;51.436;7.356;2023-03-20T05:42:09;16.57;;;11.50;;
1505;SDS011;744;51.436;7.356;2023-03-20T05:44:36;12.70;;;10.47;;
1505;SDS011;744;51.436;7.356;2023-03-20T05:47:03;17.33;;;12.03;;
1505;SDS011;744;51.436;7.356;2023-03-20T05:49:31;11.20;;;9.30;;
1505;SDS011;744;51.436;7.356;2023-03-20T05:51:58;15.10;;;10.90;;
1505;SDS011;744;51.436;7.356;2023-03-20T05:54:25;14.60;;;10.63;;
1505;SDS011;744;51.436;7.356;2023-03-20T05:56:52;16.50;;;10.70;;
1505;SDS011;744;51.436;7.356;2023-03-20T05:59:19;13.80;;;10.70;;
1505;SDS011;744;51.436;7.356;2023-03-20T06:01:46;13.97;;;10.63;;
1505;SDS011;744;51.436;7.356;2023-03-20T06:04:13;17.80;;;11.60;;
1505;SDS011;744;51.436;7.356;2023-03-20T06:06:40;15.97;;;11.33;;
1505;SDS011;744;51.436;7.356;2023-03-20T06:09:07;15.80;;;10.57;;
1505;SDS011;744;51.436;7.356;2023-03-20T06:11:34;14.30;;;9.73;;
1505;SDS011;744;51.436;7.356;2023-03-20T06:14:03;15.73;;;10.40;;
1505;SDS011;744;51.436;7.356;2023-03-20T06:16:30;14.03;;;10.00;;
1505;SDS011;744;51.436;7.356;2023-03-20T06:18:56;13.87;;;10.77;;
1505;SDS011;744;51.436;7.356;2023-03-20T06:21:24;15.03;;;11.20;;
1505;SDS011;744;51.436;7.356;2023-03-20T06:23:52;15.00;;;10.50;;
1505;SDS011;744;51.436;7.356;2023-03-20T06:26:20;14.33;;;11.07;;
1505;SDS011;744;51.436;7.356;2023-03-20T06:28:46;17.57;;;11.10;;
1505;SDS011;744;51.436;7.356;2023-03-20T06:31:14;14.80;;;11.17;;
1505;SDS011;744;51.436;7.356;2023-03-20T06:33:41;15.47;;;11.53;;
1505;SDS011;744;51.436;7.356;2023-03-20T06:36:09;19.90;;;11.73;;
1505;SDS011;744;51.436;7.356;2023-03-20T06:38:36;16.57;;;11.67;;
1505;SDS011;744;51.436;7.356;2023-03-20T06:41:03;13.17;;;10.70;;
1505;SDS011;744;51.436;7.356;2023-03-20T06:43:30;14.57;;;10.70;;
1505;SDS011;744;51.436;7.356;2023-03-20T06:45:57;16.53;;;11.37;;
1505;SDS011;744;51.436;7.356;2023-03-20T06:48:24;16.83;;;10.43;;
1505;SDS011;744;51.436;7.356;2023-03-20T06:50:51;14.07;;;10.70;;
1505;SDS011;744;51.436;7.356;2023-03-20T06:53:18;15.17;;;11.23;;
1505;SDS011;744;51.436;7.356;2023-03-20T06:55:46;14.50;;;10.60;;
1505;SDS011;744;51.436;7.356;2023-03-20T06:58:14;12.10;;;9.90;;
1505;SDS011;744;51.436;7.356;2023-03-20T07:00:42;13.70;;;10.27;;
1505;SDS011;744;51.436;7.356;2023-03-20T07:03:09;15.13;;;11.00;;
1505;SDS011;744;51.436;7.356;2023-03-20T07:05:38;14.67;;;10.37;;
1505;SDS011;744;51.436;7.356;2023-03-20T07:08:05;14.17;;;9.67;;
1505;SDS011;744;51.436;7.356;2023-03-20T07:10:33;11.47;;;9.23;;
1505;SDS011;744;51.436;7.356;2023-03-20T07:13:00;14.00;;;9.77;;
1505;SDS011;744;51.436;7.356;2023-03-20T07:15:27;12.57;;;9.43;;
1505;SDS011;744;51.436;7.356;2023-03-20T07:17:55;14.30;;;10.60;;
1505;SDS011;744;51.436;7.356;2023-03-20T07:20:22;14.60;;;10.13;;
1505;SDS011;744;51.436;7.356;2023-03-20T07:22:49;11.10;;;9.70;;
1505;SDS011;744;51.436;7.356;2023-03-20T07:25:16;13.73;;;9.10;;
1505;SDS011;744;51.436;7.356;2023-03-20T07:27:51;15.23;;;8.07;;
1505;SDS011;744;51.436;7.356;2023-03-20T07:30:18;10.50;;;8.20;;
1505;SDS011;744;51.436;7.356;2023-03-20T07:32:45;13.37;;;8.63;;
1505;SDS011;744;51.436;7.356;2023-03-20T07:35:13;10.00;;;8.00;;
1505;SDS011;744;51.436;7.356;2023-03-20T07:37:40;13.13;;;7.60;;
1505;SDS011;744;51.436;7.356;2023-03-20T07:40:08;13.33;;;7.87;;
1505;SDS011;744;51.436;7.356;2023-03-20T07:42:36;9.67;;;7.03;;
1505;SDS011;744;51.436;7.356;2023-03-20T07:45:03;14.40;;;8.73;;
1505;SDS011;744;51.436;7.356;2023-03-20T07:47:30;8.57;;;6.60;;
1505;SDS011;744;51.436;7.356;2023-03-20T07:49:57;15.03;;;7.67;;
1505;SDS011;744;51.436;7.356;2023-03-20T07:52:24;10.53;;;6.50;;
1505;SDS011;744;51.436;7.356;2023-03-20T07:54:51;8.77;;;6.17;;
1505;SDS011;744;51.436;7.356;2023-03-20T07:57:18;8.70;;;6.43;;
1505;SDS011;744;51.436;7.356;2023-03-20T07:59:46;7.33;;;5.67;;
1505;SDS011;744;51.436;7.356;2023-03-20T08:02:16;9.50;;;7.23;;
1505;SDS011;744;51.436;7.356;2023-03-20T08:04:44;7.33;;;6.20;;
1505;SDS011;744;51.436;7.356;2023-03-20T08:07:11;9.23;;;6.43;;
1505;SDS011;744;51.436;7.356;2023-03-20T08:09:38;13.27;;;5.70;;
1505;SDS011;744;51.436;7.356;2023-03-20T08:12:06;9.60;;;5.20;;
1505;SDS011;744;51.436;7.356;2023-03-20T08:14:33;10.80;;;5.93;;
1505;SDS011;744;51.436;7.356;2023-03-20T08:17:00;8.13;;;6.10;;
1505;SDS011;744;51.436;7.356;2023-03-20T08:19:41;9.77;;;6.30;;
1505;SDS011;744;51.436;7.356;2023-03-20T08:22:08;10.00;;;5.57;;
1505;SDS011;744;51.436;7.356;2023-03-20T08:24:35;10.83;;;5.47;;
1505;SDS011;744;51.436;7.356;2023-03-20T08:27:01;8.33;;;6.07;;
1505;SDS011;744;51.436;7.356;2023-03-20T08:29:29;8.40;;;5.07;;
1505;SDS011;744;51.436;7.356;2023-03-20T08:31:56;8.50;;;5.20;;
1505;SDS011;744;51.436;7.356;2023-03-20T08:34:23;6.80;;;5.70;;
1505;SDS011;744;51.436;7.356;2023-03-20T08:36:51;7.37;;;5.20;;
1505;SDS011;744;51.436;7.356;2023-03-20T08:39:18;10.73;;;5.37;;
1505;SDS011;744;51.436;7.356;2023-03-20T08:41:47;8.63;;;4.80;;
1505;SDS011;744;51.436;7.356;2023-03-20T08:44:13;10.13;;;5.87;;
1505;SDS011;744;51.436;7.356;2023-03-20T08:46:40;10.60;;;5.70;;
1505;SDS011;744;51.436;7.356;2023-03-20T08:49:10;7.30;;;5.10;;
1505;SDS011;744;51.436;7.356;2023-03-20T08:51:36;11.63;;;5.60;;
1505;SDS011;744;51.436;7.356;2023-03-20T08:54:03;9.30;;;5.97;;
1505;SDS011;744;51.436;7.356;2023-03-20T08:56:30;7.30;;;5.07;;
1505;SDS011;744;51.436;7.356;2023-03-20T08:58:57;8.33;;;4.93;;
1505;SDS011;744;51.436;7.356;2023-03-20T09:01:24;8.57;;;5.40;;
1505;SDS011;744;51.436;7.356;2023-03-20T09:04:07;9.73;;;5.80;;
1505;SDS011;744;51.436;7.356;2023-03-20T09:06:37;10.10;;;5.80;;
1505;SDS011;744;51.436;7.356;2023-03-20T09:09:04;8.07;;;6.10;;
1505;SDS011;744;51.436;7.356;2023-03-20T09:11:32;7.60;;;6.30;;
1505;SDS011;744;51.436;7.356;2023-03-20T09:13:59;7.00;;;5.80;;
1505;SDS011;744;51.436;7.356;2023-03-20T09:16:26;10.67;;;6.63;;
1505;SDS011;744;51.436;7.356;2023-03-20T09:18:54;7.93;;;5.70;;
1505;SDS011;744;51.436;7.356;2023-03-20T09:21:21;11.57;;;6.30;;
1505;SDS011;744;51.436;7.356;2023-03-20T09:23:48;10.43;;;6.40;;
1505;SDS011;744;51.436;7.356;2023-03-20T09:26:15;10.10;;;6.07;;
1505;SDS011;744;51.436;7.356;2023-03-20T09:28:42;16.90;;;7.50;;
1505;SDS011;744;51.436;7.356;2023-03-20T09:31:09;8.53;;;6.23;;
1505;SDS011;744;51.436;7.356;2023-03-20T09:33:37;12.07;;;7.87;;
1505;SDS011;744;51.436;7.356;2023-03-20T09:36:05;7.70;;;5.93;;
1505;SDS011;744;51.436;7.356;2023-03-20T09:38:33;7.10;;;5.47;;
1505;SDS011;744;51.436;7.356;2023-03-20T09:41:01;10.27;;;6.77;;
1505;SDS011;744;51.436;7.356;2023-03-20T09:52:33;6.77;;;4.83;;
1505;SDS011;744;51.436;7.356;2023-03-20T09:55:09;8.13;;;4.97;;
1505;SDS011;744;51.436;7.356;2023-03-20T09:57:46;6.27;;;4.73;;
1505;SDS011;744;51.436;7.356;2023-03-20T10:00:18;8.20;;;4.70;;
1505;SDS011;744;51.436;7.356;2023-03-20T10:03:27;9.57;;;4.97;;
1505;SDS011;744;51.436;7.356;2023-03-20T10:05:59;8.37;;;4.80;;
1505;SDS011;744;51.436;7.356;2023-03-20T10:08:32;6.30;;;3.90;;
1505;SDS011;744;51.436;7.356;2023-03-20T10:19:10;7.53;;;3.97;;
1505;SDS011;744;51.436;7.356;2023-03-20T10:21:44;10.27;;;5.33;;
1505;SDS011;744;51.436;7.356;2023-03-20T10:24:28;5.37;;;3.60;;
1505;SDS011;744;51.436;7.356;2023-03-20T10:27:03;6.00;;;3.50;;
1505;SDS011;744;51.436;7.356;2023-03-20T10:29:53;6.10;;;3.83;;
1505;SDS011;744;51.436;7.356;2023-03-20T10:32:31;7.50;;;4.03;;
1505;SDS011;744;51.436;7.356;2023-03-20T10:40:23;6.70;;;4.60;;
1505;SDS011;744;51.436;7.356;2023-03-20T10:46:05;6.33;;;4.63;;
1505;SDS011;744;51.436;7.356;2023-03-20T10:48:43;8.43;;;5.00;;
1505;SDS011;744;51.436;7.356;2023-03-20T10:57:04;5.60;;;3.23;;
1505;SDS011;744;51.436;7.356;2023-03-20T11:02:11;4.10;;;3.57;;
1505;SDS011;744;51.436;7.356;2023-03-20T11:04:39;5.90;;;3.93;;
1505;SDS011;744;51.436;7.356;2023-03-20T11:12:33;6.13;;;3.03;;
1505;SDS011;744;51.436;7.356;2023-03-20T11:17:54;8.13;;;3.60;;
1505;SDS011;744;51.436;7.356;2023-03-20T11:20:23;12.63;;;4.20;;
1505;SDS011;744;51.436;7.356;2023-03-20T11:22:56;9.50;;;2.93;;
1505;SDS011;744;51.436;7.356;2023-03-20T11:25:28;7.50;;;3.00;;
1505;SDS011;744;51.436;7.356;2023-03-20T11:34:18;7.97;;;5.77;;
1505;SDS011;744;51.436;7.356;2023-03-20T11:36:58;4.80;;;2.37;;
1505;SDS011;744;51.436;7.356;2023-03-20T11:39:37;5.87;;;2.47;;
1505;SDS011;744;51.436;7.356;2023-03-20T11:42:22;4.50;;;2.23;;
1505;SDS011;744;51.436;7.356;2023-03-20T11:44:58;3.83;;;2.23;;
1505;SDS011;744;51.436;7.356;2023-03-20T11:47:31;7.37;;;2.70;;
1505;SDS011;744;51.436;7.356;2023-03-20T11:50:02;3.90;;;2.00;;
1505;SDS011;744;51.436;7.356;2023-03-20T11:52:36;3.30;;;2.33;;
1505;SDS011;744;51.436;7.356;2023-03-20T11:55:06;4.90;;;2.10;;
1505;SDS011;744;51.436;7.356;2023-03-20T11:57:58;4.60;;;2.30;;
1505;SDS011;744;51.436;7.356;2023-03-20T12:00:36;3.60;;;2.27;;
1505;SDS011;744;51.436;7.356;2023-03-20T12:06:14;5.50;;;2.03;;
1505;SDS011;744;51.436;7.356;2023-03-20T12:08:45;6.27;;;2.13;;
1505;SDS011;744;51.436;7.356;2023-03-20T12:11:37;8.03;;;2.87;;
1505;SDS011;744;51.436;7.356;2023-03-20T12:14:37;6.27;;;2.80;;
1505;SDS011;744;51.436;7.356;2023-03-20T12:19:52;6.73;;;3.30;;
1505;SDS011;744;51.436;7.356;2023-03-20T12:22:24;15.63;;;5.07;;
1505;SDS011;744;51.436;7.356;2023-03-20T12:25:00;4.10;;;2.70;;
1505;SDS011;744;51.436;7.356;2023-03-20T12:27:46;5.23;;;2.90;;
1505;SDS011;744;51.436;7.356;2023-03-20T12:33:02;5.00;;;2.90;;
1505;SDS011;744;51.436;7.356;2023-03-20T12:35:37;4.67;;;2.70;;
1505;SDS011;744;51.436;7.356;2023-03-20T12:38:17;5.23;;;2.50;;
1505;SDS011;744;51.436;7.356;2023-03-20T12:41:03;5.60;;;2.20;;
1505;SDS011;744;51.436;7.356;2023-03-20T12:43:41;5.07;;;2.80;;
1505;SDS011;744;51.436;7.356;2023-03-20T12:52:13;3.80;;;2.83;;
1505;SDS011;744;51.436;7.356;2023-03-20T12:55:05;8.53;;;3.47;;
1505;SDS011;744;51.436;7.356;2023-03-20T13:06:01;3.67;;;3.30;;
1505;SDS011;744;51.436;7.356;2023-03-20T13:11:30;7.10;;;3.03;;
1505;SDS011;744;51.436;7.356;2023-03-20T13:17:01;5.73;;;3.03;;
1505;SDS011;744;51.436;7.356;2023-03-20T13:19:45;3.40;;;2.60;;
1505;SDS011;744;51.436;7.356;2023-03-20T13:22:26;5.00;;;3.10;;
1505;SDS011;744;51.436;7.356;2023-03-20T13:25:15;2.37;;;2.00;;
1505;SDS011;744;51.436;7.356;2023-03-20T13:27:47;7.40;;;2.70;;
1505;SDS011;744;51.436;7.356;2023-03-20T13:33:18;6.50;;;3.13;;
1505;SDS011;744;51.436;7.356;2023-03-20T13:38:35;5.10;;;2.33;;
1505;SDS011;744;51.436;7.356;2023-03-20T13:41:07;5.00;;;2.30;;
1505;SDS011;744;51.436;7.356;2023-03-20T13:43:44;3.10;;;2.20;;
1505;SDS011;744;51.436;7.356;2023-03-20T13:46:19;3.20;;;2.00;;
1505;SDS011;744;51.436;7.356;2023-03-20T13:49:24;5.70;;;2.83;;
1505;SDS011;744;51.436;7.356;2023-03-20T13:52:15;4.87;;;2.70;;
1505;SDS011;744;51.436;7.356;2023-03-20T13:54:59;4.77;;;2.20;;
1505;SDS011;744;51.436;7.356;2023-03-20T14:03:35;5.13;;;2.63;;
1505;SDS011;744;51.436;7.356;2023-03-20T14:08:54;6.90;;;3.70;;
1505;SDS011;744;51.436;7.356;2023-03-20T14:13:57;3.27;;;2.73;;
1505;SDS011;744;51.436;7.356;2023-03-20T14:16:30;3.23;;;2.57;;
1505;SDS011;744;51.436;7.356;2023-03-20T14:21:48;5.60;;;3.27;;
1505;SDS011;744;51.436;7.356;2023-03-20T14:24:18;6.53;;;2.50;;
1505;SDS011;744;51.436;7.356;2023-03-20T14:26:48;5.43;;;2.60;;
1505;SDS011;744;51.436;7.356;2023-03-20T14:29:25;3.43;;;2.00;;
1505;SDS011;744;51.436;7.356;2023-03-20T14:34:46;6.00;;;3.00;;
1505;SDS011;744;51.436;7.356;2023-03-20T14:37:29;4.40;;;2.40;;
1505;SDS011;744;51.436;7.356;2023-03-20T14:40:19;5.60;;;2.40;;
1505;SDS011;744;51.436;7.356;2023-03-20T14:42:50;6.27;;;3.80;;
1505;SDS011;744;51.436;7.356;2023-03-20T14:45:39;4.93;;;2.93;;
1505;SDS011;744;51.436;7.356;2023-03-20T14:51:25;4.30;;;2.17;;
1505;SDS011;744;51.436;7.356;2023-03-20T14:53:55;5.17;;;2.40;;
1505;SDS011;744;51.436;7.356;2023-03-20T14:56:28;4.27;;;3.37;;
1505;SDS011;744;51.436;7.356;2023-03-20T14:59:03;6.50;;;3.60;;
1505;SDS011;744;51.436;7.356;2023-03-20T15:06:31;7.40;;;2.93;;
1505;SDS011;744;51.436;7.356;2023-03-20T15:09:03;4.77;;;2.07;;
1505;SDS011;744;51.436;7.356;2023-03-20T15:11:33;5.53;;;2.20;;
1505;SDS011;744;51.436;7.356;2023-03-20T15:14:01;6.53;;;3.37;;
1505;SDS011;744;51.436;7.356;2023-03-20T15:16:32;5.70;;;2.90;;
1505;SDS011;744;51.436;7.356;2023-03-20T15:19:03;6.70;;;3.00;;
1505;SDS011;744;51.436;7.356;2023-03-20T15:21:39;4.93;;;2.80;;
1505;SDS011;744;51.436;7.356;2023-03-20T15:24:07;4.50;;;2.23;;
1505;SDS011;744;51.436;7.356;2023-03-20T15:26:41;3.13;;;1.97;;
1505;SDS011;744;51.436;7.356;2023-03-20T15:29:12;5.50;;;2.50;;
1505;SDS011;744;51.436;7.356;2023-03-20T15:31:43;5.00;;;3.17;;
1505;SDS011;744;51.436;7.356;2023-03-20T15:34:16;4.63;;;2.70;;
1505;SDS011;744;51.436;7.356;2023-03-20T15:36:46;6.70;;;2.33;;
1505;SDS011;744;51.436;7.356;2023-03-20T15:39:16;9.70;;;3.43;;
1505;SDS011;744;51.436;7.356;2023-03-20T15:41:46;5.33;;;2.27;;
1505;SDS011;744;51.436;7.356;2023-03-20T15:44:44;3.33;;;2.83;;
1505;SDS011;744;51.436;7.356;2023-03-20T15:47:14;5.63;;;2.93;;
1505;SDS011;744;51.436;7.356;2023-03-20T15:49:56;7.13;;;3.53;;
1505;SDS011;744;51.436;7.356;2023-03-20T15:55:01;4.53;;;2.77;;
1505;SDS011;744;51.436;7.356;2023-03-20T15:57:32;7.60;;;3.83;;
1505;SDS011;744;51.436;7.356;2023-03-20T16:00:03;4.43;;;2.97;;
1505;SDS011;744;51.436;7.356;2023-03-20T16:02:31;4.30;;;3.83;;
1505;SDS011;744;51.436;7.356;2023-03-20T16:04:58;3.40;;;3.07;;
1505;SDS011;744;51.436;7.356;2023-03-20T16:07:26;7.47;;;3.90;;
1505;SDS011;744;51.436;7.356;2023-03-20T16:09:56;7.60;;;4.13;;
1505;SDS011;744;51.436;7.356;2023-03-20T16:12:24;6.80;;;3.43;;
1505;SDS011;744;51.436;7.356;2023-03-20T16:14:54;9.93;;;4.50;;
1505;SDS011;744;51.436;7.356;2023-03-20T16:17:23;9.00;;;4.27;;
1505;SDS011;744;51.436;7.356;2023-03-20T16:19:52;5.43;;;3.77;;
1505;SDS011;744;51.436;7.356;2023-03-20T16:22:20;9.30;;;4.40;;
1505;SDS011;744;51.436;7.356;2023-03-20T16:24:53;10.50;;;4.10;;
1505;SDS011;744;51.436;7.356;2023-03-20T16:27:25;6.10;;;4.10;;
1505;SDS011;744;51.436;7.356;2023-03-20T16:29:58;11.70;;;5.57;;
1505;SDS011;744;51.436;7.356;2023-03-20T16:32:42;9.90;;;4.60;;
1505;SDS011;744;51.436;7.356;2023-03-20T16:35:17;4.00;;;3.60;;
1505;SDS011;744;51.436;7.356;2023-03-20T16:37:52;7.73;;;3.90;;
1505;SDS011;744;51.436;7.356;2023-03-20T16:40:43;10.07;;;3.70;;
1505;SDS011;744;51.436;7.356;2023-03-20T16:43:14;8.20;;;4.07;;
1505;SDS011;744;51.436;7.356;2023-03-20T16:45:48;6.90;;;4.10;;
1505;SDS011;744;51.436;7.356;2023-03-20T16:48:25;5.20;;;4.27;;
1505;SDS011;744;51.436;7.356;2023-03-20T16:50:58;8.03;;;4.23;;
1505;SDS011;744;51.436;7.356;2023-03-20T16:53:39;6.80;;;5.13;;
1505;SDS011;744;51.436;7.356;2023-03-20T16:56:09;8.73;;;3.70;;
1505;SDS011;744;51.436;7.356;2023-03-20T16:58:43;7.80;;;4.33;;
1505;SDS011;744;51.436;7.356;2023-03-20T17:01:18;5.77;;;4.20;;
1505;SDS011;744;51.436;7.356;2023-03-20T17:03:57;5.37;;;3.67;;
1505;SDS011;744;51.436;7.356;2023-03-20T17:06:37;7.57;;;4.40;;
1505;SDS011;744;51.436;7.356;2023-03-20T17:11:38;8.00;;;4.40;;
1505;SDS011;744;51.436;7.356;2023-03-20T17:14:10;6.47;;;3.13;;
1505;SDS011;744;51.436;7.356;2023-03-20T17:16:37;5.20;;;3.70;;
1505;SDS011;744;51.436;7.356;2023-03-20T17:19:15;5.97;;;3.90;;
1505;SDS011;744;51.436;7.356;2023-03-20T17:21:43;6.53;;;4.40;;
1505;SDS011;744;51.436;7.356;2023-03-20T17:24:12;5.27;;;3.40;;
1505;SDS011;744;51.436;7.356;2023-03-20T17:26:40;5.73;;;3.80;;
1505;SDS011;744;51.436;7.356;2023-03-20T17:29:10;9.10;;;3.57;;
1505;SDS011;744;51.436;7.356;2023-03-20T17:31:38;5.67;;;4.00;;
1505;SDS011;744;51.436;7.356;2023-03-20T17:34:05;17.80;;;10.43;;
1505;SDS011;744;51.436;7.356;2023-03-20T17:36:33;8.00;;;3.80;;
1505;SDS011;744;51.436;7.356;2023-03-20T17:39:00;7.50;;;5.40;;
1505;SDS011;744;51.436;7.356;2023-03-20T17:41:27;4.50;;;2.93;;
1505;SDS011;744;51.436;7.356;2023-03-20T17:43:55;16.07;;;7.27;;
1505;SDS011;744;51.436;7.356;2023-03-20T17:46:23;10.00;;;3.90;;
1505;SDS011;744;51.436;7.356;2023-03-20T17:49:12;12.87;;;3.87;;
1505;SDS011;744;51.436;7.356;2023-03-20T17:51:41;6.57;;;2.97;;
1505;SDS011;744;51.436;7.356;2023-03-20T17:54:08;5.97;;;3.70;;
1505;SDS011;744;51.436;7.356;2023-03-20T17:56:35;9.47;;;3.93;;
1505;SDS011;744;51.436;7.356;2023-03-20T17:59:04;7.63;;;3.27;;
1505;SDS011;744;51.436;7.356;2023-03-20T18:01:32;8.83;;;3.40;;
1505;SDS011;744;51.436;7.356;2023-03-20T18:03:58;7.43;;;3.40;;
1505;SDS011;744;51.436;7.356;2023-03-20T18:06:27;5.53;;;3.07;;
1505;SDS011;744;51.436;7.356;2023-03-20T18:08:56;11.87;;;3.73;;
1505;SDS011;744;51.436;7.356;2023-03-20T18:11:24;5.93;;;4.43;;